Time;durP1;ratioP1;P1;durP2;ratioP2;P2;SDS_P1;SDS_P2;PMS_P1;PMS_P2;Temp;Humidity;BMP_temperature;BMP_pressure;BME280_temperature;BME280_humidity;BME280_pressure;Samples;Min_cycle;Max_cycle;Signal;HPM_P1;HPM_P2
2022/02/21 00:00:28;;;;;;;3.38;0.80;;;;;11.10;99326.00;;;;5036097;28;20197;-81
2022/02/21 00:02:56;;;;;;;3.75;0.60;;;;;11.10;99335.00;;;;5052764;28;20192;-82
2022/02/21 00:05:23;;;;;;;2.08;0.70;;;;;11.20;99352.00;;;;5051829;28;20214;-81
2022/02/21 00:07:51;;;;;;;6.30;1.05;;;;;11.20;99371.00;;;;5035309;28;20208;-82
2022/02/21 00:10:19;;;;;;;8.52;1.67;;;;;11.20;99358.00;;;;5052806;28;20191;-82
2022/02/21 00:12:48;;;;;;;3.65;1.02;;;;;11.10;99343.00;;;;5051658;28;20700;-81
2022/02/21 00:15:17;;;;;;;2.90;0.65;;;;;11.10;99381.00;;;;5049229;28;20215;-81
2022/02/21 00:17:46;;;;;;;12.80;2.13;;;;;11.10;99362.00;;;;5042867;28;20259;-82
2022/02/21 00:20:13;;;;;;;10.20;1.30;;;;;11.00;99374.00;;;;5046391;28;20691;-82
2022/02/21 00:22:40;;;;;;;4.40;0.98;;;;;11.00;99365.00;;;;5051019;28;20202;-82
2022/02/21 00:25:09;;;;;;;5.75;1.15;;;;;11.00;99387.00;;;;5034630;28;20532;-82
2022/02/21 00:27:36;;;;;;;6.55;1.00;;;;;10.90;99391.00;;;;5033664;28;20211;-82
2022/02/21 00:30:06;;;;;;;7.70;1.10;;;;;10.90;99393.00;;;;5043243;28;20192;-81
2022/02/21 00:32:34;;;;;;;8.77;1.45;;;;;10.80;99407.00;;;;5034311;28;20563;-82
2022/02/21 00:35:03;;;;;;;8.82;1.52;;;;;10.80;99412.00;;;;5031648;28;20196;-82
2022/02/21 00:37:30;;;;;;;5.43;0.77;;;;;10.80;99409.00;;;;5039506;28;20200;-82
2022/02/21 00:39:57;;;;;;;6.95;1.40;;;;;10.80;99417.00;;;;5040523;28;20195;-82
2022/02/21 00:42:25;;;;;;;18.88;1.95;;;;;10.80;99407.00;;;;5035571;28;20216;-82
2022/02/21 00:44:55;;;;;;;6.07;1.30;;;;;10.80;99424.00;;;;5035518;28;20709;-82
2022/02/21 00:47:25;;;;;;;10.18;1.30;;;;;10.80;99426.00;;;;5050597;28;20265;-82
2022/02/21 00:49:52;;;;;;;8.10;1.50;;;;;10.80;99439.00;;;;5049640;28;20277;-81
2022/02/21 00:52:20;;;;;;;6.93;1.50;;;;;10.70;99446.00;;;;5041522;28;20197;-82
2022/02/21 00:54:47;;;;;;;8.20;1.30;;;;;10.70;99440.00;;;;5030966;28;20576;-81
2022/02/21 00:57:15;;;;;;;5.03;1.58;;;;;10.60;99441.00;;;;5030454;28;20247;-81
2022/02/21 00:59:43;;;;;;;6.25;2.05;;;;;10.60;99453.00;;;;5040505;28;20188;-82
2022/02/21 01:02:11;;;;;;;9.20;1.60;;;;;10.60;99481.00;;;;5048218;28;20573;-82
2022/02/21 01:04:39;;;;;;;6.47;1.65;;;;;10.60;99468.00;;;;5049935;28;20203;-83
2022/02/21 01:07:07;;;;;;;8.15;1.00;;;;;10.60;99468.00;;;;5052081;28;20183;-82
2022/02/21 01:09:34;;;;;;;9.73;1.63;;;;;10.60;99480.00;;;;5054722;28;20203;-82
2022/02/21 01:12:01;;;;;;;5.30;1.70;;;;;10.60;99478.00;;;;5035904;28;20203;-83
2022/02/21 01:14:29;;;;;;;7.28;1.52;;;;;10.60;99488.00;;;;5029330;28;20693;-82
2022/02/21 01:16:56;;;;;;;11.43;1.85;;;;;10.60;99485.00;;;;5040547;28;20243;-82
2022/02/21 01:19:23;;;;;;;8.35;1.35;;;;;10.60;99492.00;;;;5043040;28;20207;-82
2022/02/21 01:21:52;;;;;;;8.48;1.65;;;;;10.60;99515.00;;;;5038647;28;20203;-83
2022/02/21 01:24:19;;;;;;;8.13;1.80;;;;;10.60;99510.00;;;;5029767;28;20204;-82
2022/02/21 01:26:46;;;;;;;9.15;2.05;;;;;10.60;99502.00;;;;5037392;28;20207;-81
2022/02/21 01:29:14;;;;;;;7.28;0.95;;;;;10.70;99520.00;;;;5045537;28;20192;-83
2022/02/21 01:31:41;;;;;;;4.55;0.85;;;;;10.70;99513.00;;;;5047076;28;20226;-83
2022/02/21 01:34:08;;;;;;;4.38;1.27;;;;;10.80;99527.00;;;;5039465;28;20223;-83
2022/02/21 01:36:35;;;;;;;10.93;1.33;;;;;10.80;99517.00;;;;5041445;28;20219;-82
2022/02/21 01:39:04;;;;;;;4.63;0.75;;;;;10.80;99513.00;;;;5045857;28;20201;-82
2022/02/21 01:41:31;;;;;;;10.73;1.40;;;;;10.90;99533.00;;;;5034832;28;21119;-83
2022/02/21 01:44:06;;;;;;;6.68;1.30;;;;;10.80;99545.00;;;;5049341;28;20218;-84
2022/02/21 01:46:34;;;;;;;7.90;1.40;;;;;10.90;99540.00;;;;5048662;28;20196;-81
2022/02/21 01:49:01;;;;;;;5.85;1.05;;;;;10.90;99530.00;;;;5048285;28;20261;-82
2022/02/21 01:51:29;;;;;;;8.40;1.35;;;;;11.00;99532.00;;;;5045751;28;20214;-82
2022/02/21 01:53:57;;;;;;;4.70;1.52;;;;;11.00;99530.00;;;;5049026;28;20191;-82
2022/02/21 01:56:26;;;;;;;5.43;1.50;;;;;10.90;99532.00;;;;5032589;28;20232;-83
2022/02/21 01:58:53;;;;;;;16.23;2.13;;;;;10.90;99543.00;;;;5047599;28;20210;-82
2022/02/21 02:01:20;;;;;;;2.97;0.98;;;;;10.90;99555.00;;;;5047745;28;20192;-83
2022/02/21 02:03:48;;;;;;;6.10;1.10;;;;;10.90;99548.00;;;;5043863;28;20709;-82
2022/02/21 02:06:15;;;;;;;7.05;0.98;;;;;10.90;99538.00;;;;5034602;28;20287;-83
2022/02/21 02:08:43;;;;;;;4.88;1.10;;;;;11.00;99545.00;;;;5029413;28;20209;-82
2022/02/21 02:11:11;;;;;;;5.13;0.90;;;;;11.00;99538.00;;;;5045410;28;20212;-84
2022/02/21 02:13:40;;;;;;;9.38;1.05;;;;;11.00;99549.00;;;;5040892;28;20200;-83
2022/02/21 02:16:07;;;;;;;8.55;1.95;;;;;11.00;99560.00;;;;5028764;28;20223;-83
2022/02/21 02:18:34;;;;;;;5.13;1.27;;;;;11.00;99550.00;;;;5042895;28;20250;-83
2022/02/21 02:21:02;;;;;;;7.10;1.45;;;;;11.00;99561.00;;;;5040083;28;20242;-82
2022/02/21 02:23:30;;;;;;;4.72;1.60;;;;;11.00;99570.00;;;;5038617;28;20588;-84
2022/02/21 02:25:57;;;;;;;6.75;0.88;;;;;11.00;99564.00;;;;5047970;28;20206;-83
2022/02/21 02:28:26;;;;;;;8.20;1.25;;;;;11.00;99568.00;;;;5047442;28;20216;-84
2022/02/21 02:30:53;;;;;;;6.18;0.80;;;;;11.00;99561.00;;;;5039192;28;20546;-83
2022/02/21 02:33:20;;;;;;;5.07;0.98;;;;;11.00;99566.00;;;;5048726;28;20203;-83
2022/02/21 02:35:47;;;;;;;9.82;1.63;;;;;11.00;99552.00;;;;5029613;28;20212;-82
2022/02/21 02:38:14;;;;;;;4.63;1.10;;;;;11.00;99573.00;;;;5030543;28;20693;-82
2022/02/21 02:40:43;;;;;;;9.27;2.10;;;;;11.00;99543.00;;;;5041710;28;20200;-82
2022/02/21 02:43:12;;;;;;;3.88;0.70;;;;;11.00;99578.00;;;;5038106;28;20222;-81
2022/02/21 02:45:44;;;;;;;9.82;1.73;;;;;11.00;99571.00;;;;5047783;28;20208;-83
2022/02/21 02:48:12;;;;;;;4.50;0.85;;;;;11.00;99571.00;;;;5047386;28;20676;-83
2022/02/21 02:50:39;;;;;;;6.00;1.23;;;;;11.00;99560.00;;;;5047989;28;20246;-81
2022/02/21 02:53:06;;;;;;;6.13;1.00;;;;;11.00;99562.00;;;;5048220;28;20203;-85
2022/02/21 02:55:34;;;;;;;4.65;1.02;;;;;11.00;99562.00;;;;5046615;28;20249;-84
2022/02/21 02:58:02;;;;;;;5.97;0.93;;;;;11.00;99567.00;;;;5047753;28;20249;-84
2022/02/21 03:00:29;;;;;;;9.25;1.30;;;;;11.00;99547.00;;;;5047775;28;20188;-84
2022/02/21 03:02:57;;;;;;;8.23;1.80;;;;;11.00;99551.00;;;;5039892;28;20204;-83
2022/02/21 03:05:24;;;;;;;3.58;1.35;;;;;10.90;99562.00;;;;5032217;28;20191;-83
2022/02/21 03:07:51;;;;;;;5.97;1.02;;;;;10.90;99556.00;;;;5048248;28;20195;-83
2022/02/21 03:10:19;;;;;;;7.43;0.90;;;;;10.90;99567.00;;;;5040207;28;20622;-84
2022/02/21 03:12:46;;;;;;;9.32;1.75;;;;;10.90;99569.00;;;;5046251;28;20192;-83
2022/02/21 03:15:15;;;;;;;6.40;1.02;;;;;10.90;99564.00;;;;5048344;28;20227;-83
2022/02/21 03:17:42;;;;;;;8.80;1.35;;;;;10.90;99575.00;;;;5036288;28;20239;-83
2022/02/21 03:20:11;;;;;;;4.60;1.00;;;;;10.90;99568.00;;;;5049585;28;20258;-83
2022/02/21 03:22:38;;;;;;;6.05;1.25;;;;;10.90;99575.00;;;;5051806;28;20206;-81
2022/02/21 03:25:06;;;;;;;3.25;0.82;;;;;10.90;99542.00;;;;5046834;28;20199;-82
2022/02/21 03:27:39;;;;;;;6.82;1.30;;;;;10.90;99573.00;;;;5048117;28;20195;-81
2022/02/21 03:30:08;;;;;;;4.38;1.40;;;;;10.90;99583.00;;;;5047405;28;20257;-81
2022/02/21 03:32:38;;;;;;;6.72;1.27;;;;;10.80;99573.00;;;;5047368;28;20199;-82
2022/02/21 03:35:06;;;;;;;5.65;1.40;;;;;10.90;99584.00;;;;5036076;28;20230;-82
2022/02/21 03:37:35;;;;;;;2.53;0.55;;;;;10.90;99600.00;;;;5045427;28;20224;-83
2022/02/21 03:40:03;;;;;;;3.08;0.93;;;;;10.90;99582.00;;;;5031658;28;20197;-82
2022/02/21 03:42:31;;;;;;;4.45;0.85;;;;;10.90;99591.00;;;;5050878;28;20207;-83
2022/02/21 03:44:59;;;;;;;3.03;1.08;;;;;10.90;99575.00;;;;5039827;28;20949;-82
2022/02/21 03:47:26;;;;;;;2.63;0.80;;;;;10.90;99593.00;;;;5052244;28;20226;-83
2022/02/21 03:49:54;;;;;;;5.30;1.05;;;;;10.80;99593.00;;;;5051375;28;20192;-84
2022/02/21 03:52:22;;;;;;;5.63;1.25;;;;;10.80;99593.00;;;;5052217;28;20203;-83
2022/02/21 03:54:49;;;;;;;6.75;1.67;;;;;10.80;99588.00;;;;5033610;28;20192;-83
2022/02/21 03:57:17;;;;;;;3.05;0.60;;;;;10.80;99602.00;;;;5050700;28;20608;-84
2022/02/21 03:59:44;;;;;;;6.53;1.42;;;;;10.80;99603.00;;;;5034693;28;20649;-81
2022/02/21 04:02:11;;;;;;;5.80;1.17;;;;;10.80;99593.00;;;;5049622;28;20207;-83
2022/02/21 04:04:39;;;;;;;3.95;1.10;;;;;10.80;99603.00;;;;5051614;28;20191;-82
2022/02/21 04:07:08;;;;;;;4.20;1.00;;;;;10.80;99613.00;;;;5049901;28;20199;-82
2022/02/21 04:09:35;;;;;;;4.32;1.17;;;;;10.90;99621.00;;;;5050691;28;20792;-81
2022/02/21 04:12:02;;;;;;;7.38;1.20;;;;;10.90;99603.00;;;;5033920;28;20204;-80
2022/02/21 04:14:29;;;;;;;3.92;1.55;;;;;10.90;99611.00;;;;5048910;28;20284;-82
2022/02/21 04:16:56;;;;;;;5.65;1.83;;;;;10.90;99619.00;;;;5039182;28;20235;-83
2022/02/21 04:19:25;;;;;;;4.07;0.80;;;;;10.90;99609.00;;;;5031752;28;20212;-81
2022/02/21 04:21:52;;;;;;;4.13;0.73;;;;;10.90;99612.00;;;;5030702;28;20201;-83
2022/02/21 04:24:20;;;;;;;4.18;0.75;;;;;10.90;99605.00;;;;5038661;28;20192;-83
2022/02/21 04:26:48;;;;;;;5.10;1.02;;;;;10.90;99595.00;;;;5049100;28;20204;-82
2022/02/21 04:29:15;;;;;;;5.03;1.50;;;;;10.90;99594.00;;;;5035760;28;20208;-83
2022/02/21 04:31:42;;;;;;;4.55;0.70;;;;;10.90;99591.00;;;;5036387;28;20195;-82
2022/02/21 04:34:09;;;;;;;8.35;1.45;;;;;10.80;99593.00;;;;5050473;28;20242;-82
2022/02/21 04:36:38;;;;;;;6.45;1.20;;;;;10.80;99591.00;;;;5040378;28;20224;-83
2022/02/21 04:39:06;;;;;;;5.72;1.30;;;;;10.80;99590.00;;;;5035029;28;20199;-83
2022/02/21 04:41:35;;;;;;;5.55;0.93;;;;;10.70;99593.00;;;;5044737;28;20196;-83
2022/02/21 04:44:02;;;;;;;7.13;1.05;;;;;10.80;99598.00;;;;5042256;28;20716;-84
2022/02/21 04:46:30;;;;;;;2.22;0.70;;;;;10.80;99595.00;;;;5037765;28;20199;-83
2022/02/21 04:48:57;;;;;;;5.75;1.10;;;;;10.80;99584.00;;;;5049733;28;20207;-84
2022/02/21 04:51:24;;;;;;;4.97;1.13;;;;;10.80;99590.00;;;;5036091;28;20196;-84
2022/02/21 04:53:52;;;;;;;3.38;0.93;;;;;10.80;99589.00;;;;5033357;28;20200;-83
2022/02/21 04:56:19;;;;;;;7.38;0.75;;;;;10.90;99586.00;;;;5030999;28;20208;-82
2022/02/21 04:58:47;;;;;;;7.32;1.13;;;;;10.90;99584.00;;;;5030283;28;20200;-83
2022/02/21 05:01:15;;;;;;;4.20;0.73;;;;;10.90;99584.00;;;;5043321;28;20196;-84
2022/02/21 05:03:42;;;;;;;8.45;1.10;;;;;10.90;99582.00;;;;5033992;28;20200;-83
2022/02/21 05:06:10;;;;;;;3.53;0.70;;;;;10.90;99592.00;;;;5046826;28;20633;-83
2022/02/21 05:08:37;;;;;;;3.20;1.00;;;;;10.90;99598.00;;;;5049667;28;20195;-83
2022/02/21 05:11:05;;;;;;;5.10;1.25;;;;;11.00;99572.00;;;;5035388;28;20200;-84
2022/02/21 05:13:32;;;;;;;2.70;0.82;;;;;11.00;99583.00;;;;5046665;28;20557;-84
2022/02/21 05:16:01;;;;;;;4.05;0.85;;;;;11.00;99586.00;;;;5041148;28;20254;-84
2022/02/21 05:18:28;;;;;;;9.85;1.05;;;;;11.00;99580.00;;;;5042655;28;20265;-84
2022/02/21 05:20:55;;;;;;;3.53;0.98;;;;;11.00;99562.00;;;;5029116;28;20204;-83
2022/02/21 05:23:23;;;;;;;8.90;1.02;;;;;11.00;99552.00;;;;5044219;28;20195;-83
2022/02/21 05:25:50;;;;;;;4.53;0.80;;;;;10.90;99565.00;;;;5048429;28;20203;-82
2022/02/21 05:28:17;;;;;;;5.50;1.35;;;;;10.90;99571.00;;;;5049761;28;20203;-82
2022/02/21 05:30:44;;;;;;;4.50;0.90;;;;;10.90;99575.00;;;;5048601;28;20207;-83
2022/02/21 05:33:15;;;;;;;7.47;1.58;;;;;10.80;99575.00;;;;5041263;28;20215;-83
2022/02/21 05:35:43;;;;;;;11.55;1.10;;;;;10.80;99568.00;;;;5033386;28;20200;-81
2022/02/21 05:38:11;;;;;;;2.65;0.88;;;;;10.80;99574.00;;;;5030910;28;20235;-84
2022/02/21 05:40:38;;;;;;;11.85;2.55;;;;;10.70;99575.00;;;;5049059;28;20199;-82
2022/02/21 05:43:06;;;;;;;7.50;1.10;;;;;10.70;99579.00;;;;5047336;28;20224;-83
2022/02/21 05:45:33;;;;;;;7.53;1.52;;;;;10.70;99580.00;;;;5034934;28;20207;-83
2022/02/21 05:48:00;;;;;;;5.47;1.40;;;;;10.70;99573.00;;;;5033959;28;20193;-82
2022/02/21 05:50:29;;;;;;;8.88;1.65;;;;;10.70;99578.00;;;;5055412;28;20187;-82
2022/02/21 05:52:56;;;;;;;4.75;1.13;;;;;10.60;99572.00;;;;5050044;28;20196;-82
2022/02/21 05:55:23;;;;;;;5.18;1.02;;;;;10.60;99569.00;;;;5036715;28;20196;-82
2022/02/21 05:57:55;;;;;;;4.00;1.25;;;;;10.60;99564.00;;;;5035005;28;20220;-82
2022/02/21 06:00:22;;;;;;;4.68;1.60;;;;;10.60;99575.00;;;;5047544;28;20199;-83
2022/02/21 06:02:50;;;;;;;4.32;1.02;;;;;10.60;99548.00;;;;5043464;28;20199;-84
2022/02/21 06:05:17;;;;;;;7.63;1.13;;;;;10.60;99568.00;;;;5050334;28;20191;-84
2022/02/21 06:07:49;;;;;;;5.38;1.08;;;;;10.60;99568.00;;;;5048345;28;20214;-83
2022/02/21 06:10:16;;;;;;;6.85;1.17;;;;;10.60;99565.00;;;;5048691;28;20200;-84
2022/02/21 06:12:44;;;;;;;3.15;1.02;;;;;10.60;99569.00;;;;5044785;28;20199;-83
2022/02/21 06:15:11;;;;;;;4.63;1.48;;;;;10.60;99561.00;;;;5045783;28;20243;-84
2022/02/21 06:17:39;;;;;;;11.10;1.65;;;;;10.70;99580.00;;;;5033409;28;20232;-84
2022/02/21 06:20:07;;;;;;;7.20;1.60;;;;;10.70;99563.00;;;;5040011;28;20647;-85
2022/02/21 06:22:35;;;;;;;5.97;1.13;;;;;10.70;99569.00;;;;5045230;28;20211;-85
2022/02/21 06:25:04;;;;;;;9.88;1.00;;;;;10.70;99557.00;;;;5032843;28;20207;-84
2022/02/21 06:27:32;;;;;;;5.95;1.13;;;;;10.70;99562.00;;;;5048598;28;20725;-84
2022/02/21 06:29:59;;;;;;;4.95;1.20;;;;;10.70;99555.00;;;;5047380;28;20195;-84
2022/02/21 06:32:26;;;;;;;5.65;1.02;;;;;10.70;99573.00;;;;5042415;28;20200;-84
2022/02/21 06:34:53;;;;;;;6.15;1.58;;;;;10.70;99565.00;;;;5035752;28;20312;-83
2022/02/21 06:37:21;;;;;;;3.30;0.90;;;;;10.80;99566.00;;;;5047811;28;20246;-85
2022/02/21 06:39:48;;;;;;;5.65;0.82;;;;;10.80;99565.00;;;;5047981;28;20192;-84
2022/02/21 06:42:16;;;;;;;8.88;2.08;;;;;10.80;99562.00;;;;5052998;28;20211;-86
2022/02/21 06:44:44;;;;;;;7.78;1.55;;;;;10.80;99561.00;;;;5047455;28;20206;-82
2022/02/21 06:47:11;;;;;;;7.40;1.02;;;;;10.80;99557.00;;;;5048523;28;20199;-83
2022/02/21 06:49:38;;;;;;;3.72;0.75;;;;;10.90;99541.00;;;;5044528;28;20272;-81
2022/02/21 06:52:07;;;;;;;4.15;1.17;;;;;10.90;99549.00;;;;5046304;28;20234;-81
2022/02/21 06:54:34;;;;;;;6.97;1.42;;;;;10.90;99544.00;;;;5048478;28;20203;-83
2022/02/21 06:57:01;;;;;;;5.35;0.90;;;;;10.90;99557.00;;;;5053696;28;20195;-80
2022/02/21 06:59:30;;;;;;;7.82;1.33;;;;;10.90;99546.00;;;;5048638;28;20535;-84
2022/02/21 07:02:01;;;;;;;15.05;1.65;;;;;10.90;99547.00;;;;5043455;28;20217;-84
2022/02/21 07:04:44;;;;;;;3.42;1.42;;;;;10.80;99546.00;;;;5033493;28;20187;-85
2022/02/21 07:07:14;;;;;;;5.47;0.90;;;;;10.90;99545.00;;;;5032884;28;20188;-84
2022/02/21 07:09:58;;;;;;;4.32;1.23;;;;;10.80;99548.00;;;;5047781;28;20627;-84
2022/02/21 07:12:42;;;;;;;4.82;1.33;;;;;10.90;99544.00;;;;5051238;28;20670;-85
2022/02/21 07:15:29;;;;;;;10.50;1.33;;;;;10.80;99544.00;;;;5052645;28;20184;-85
2022/02/21 07:18:01;;;;;;;5.13;1.02;;;;;10.90;99535.00;;;;5051906;28;20616;-86
2022/02/21 07:20:29;;;;;;;8.60;2.13;;;;;11.00;99527.00;;;;5052922;28;20222;-85
2022/02/21 07:22:57;;;;;;;5.70;1.13;;;;;11.00;99530.00;;;;5053460;28;20540;-86
2022/02/21 07:25:28;;;;;;;4.65;0.93;;;;;11.10;99524.00;;;;5053914;28;20203;-86
2022/02/21 07:27:55;;;;;;;4.85;1.08;;;;;11.10;99531.00;;;;5045401;28;20698;-83
2022/02/21 07:30:26;;;;;;;9.80;1.55;;;;;11.10;99518.00;;;;5033762;28;20201;-83
2022/02/21 07:33:13;;;;;;;11.73;1.10;;;;;11.10;99524.00;;;;5048240;28;20176;-83
2022/02/21 07:35:46;;;;;;;5.20;1.50;;;;;11.10;99529.00;;;;5045036;28;20195;-83
2022/02/21 07:38:24;;;;;;;5.15;1.08;;;;;11.10;99530.00;;;;5042594;28;20227;-83
2022/02/21 07:40:52;;;;;;;4.47;0.70;;;;;11.30;99521.00;;;;5050234;28;20193;-85
2022/02/21 07:43:19;;;;;;;4.78;1.55;;;;;11.30;99508.00;;;;5048734;28;20214;-84
2022/02/21 07:45:47;;;;;;;7.07;1.27;;;;;11.40;99510.00;;;;5041852;28;20199;-85
2022/02/21 07:48:15;;;;;;;7.07;0.98;;;;;11.40;99500.00;;;;5042272;28;20192;-85
2022/02/21 07:50:43;;;;;;;4.40;1.25;;;;;11.50;99500.00;;;;5038955;28;20207;-85
2022/02/21 07:53:10;;;;;;;4.47;1.02;;;;;11.60;99497.00;;;;5042051;28;20195;-83
2022/02/21 07:55:38;;;;;;;3.75;0.82;;;;;11.70;99500.00;;;;5050427;28;20206;-84
2022/02/21 07:58:06;;;;;;;6.05;1.45;;;;;11.70;99491.00;;;;5051844;28;20242;-83
2022/02/21 08:00:33;;;;;;;3.63;0.80;;;;;11.70;99486.00;;;;5032423;28;20196;-85
2022/02/21 08:03:00;;;;;;;3.35;0.80;;;;;11.80;99483.00;;;;5031832;28;20200;-84
2022/02/21 08:05:29;;;;;;;6.35;2.13;;;;;11.80;99471.00;;;;5043846;28;20206;-83
2022/02/21 08:07:56;;;;;;;4.43;1.20;;;;;11.80;99458.00;;;;5051495;28;20246;-83
2022/02/21 08:10:24;;;;;;;4.15;0.90;;;;;11.80;99458.00;;;;5034724;28;20194;-83
2022/02/21 08:12:51;;;;;;;7.50;1.35;;;;;11.80;99454.00;;;;5042876;28;20561;-84
2022/02/21 08:15:18;;;;;;;7.47;1.40;;;;;11.80;99458.00;;;;5042974;28;20212;-84
2022/02/21 08:17:47;;;;;;;7.05;1.75;;;;;11.80;99444.00;;;;5049857;28;20472;-84
2022/02/21 08:20:17;;;;;;;5.60;1.05;;;;;11.80;99453.00;;;;5046535;28;20183;-80
2022/02/21 08:22:45;;;;;;;3.53;1.23;;;;;11.80;99451.00;;;;5041176;28;20188;-82
2022/02/21 08:25:14;;;;;;;9.15;1.65;;;;;11.80;99443.00;;;;5044424;28;20207;-84
2022/02/21 08:27:43;;;;;;;6.93;1.77;;;;;11.80;99452.00;;;;5049048;28;20196;-84
2022/02/21 08:30:13;;;;;;;5.38;1.73;;;;;11.70;99486.00;;;;5043613;28;20206;-83
2022/02/21 08:32:41;;;;;;;6.43;1.42;;;;;11.60;99437.00;;;;5033815;28;20238;-86
2022/02/21 08:35:10;;;;;;;5.22;1.00;;;;;11.50;99436.00;;;;5040787;28;20196;-85
2022/02/21 08:37:37;;;;;;;5.90;1.23;;;;;11.50;99429.00;;;;5043911;28;20212;-85
2022/02/21 08:40:08;;;;;;;7.70;1.45;;;;;11.40;99434.00;;;;5035411;28;20207;-85
2022/02/21 08:42:35;;;;;;;5.22;1.02;;;;;11.40;99420.00;;;;5044106;28;20212;-87
2022/02/21 08:45:03;;;;;;;9.15;1.52;;;;;11.30;99399.00;;;;5046388;28;20196;-88
2022/02/21 08:47:30;;;;;;;7.43;1.20;;;;;11.30;99402.00;;;;5049173;28;20200;-84
2022/02/21 08:49:58;;;;;;;8.73;1.60;;;;;11.20;99419.00;;;;5032901;28;20212;-85
2022/02/21 08:52:26;;;;;;;7.80;1.20;;;;;11.20;99418.00;;;;5037014;28;20307;-85
2022/02/21 08:54:55;;;;;;;7.70;1.27;;;;;11.10;99406.00;;;;5051649;28;20192;-84
2022/02/21 08:57:23;;;;;;;5.35;1.33;;;;;11.10;99413.00;;;;5048713;28;20196;-84
2022/02/21 08:59:52;;;;;;;15.35;2.42;;;;;11.10;99412.00;;;;5038324;28;20243;-82
2022/02/21 09:02:20;;;;;;;4.93;1.40;;;;;11.00;99407.00;;;;5047422;28;20204;-84
2022/02/21 09:04:49;;;;;;;7.95;1.27;;;;;11.00;99410.00;;;;5047310;28;21034;-83
2022/02/21 09:07:18;;;;;;;6.55;1.05;;;;;10.90;99401.00;;;;5047636;28;20246;-88
2022/02/21 09:09:45;;;;;;;7.10;1.67;;;;;10.90;99398.00;;;;5047536;28;20198;-86
2022/02/21 09:12:13;;;;;;;5.72;1.10;;;;;10.80;99418.00;;;;5046851;28;20237;-86
2022/02/21 09:14:46;;;;;;;4.80;1.25;;;;;10.80;99400.00;;;;5044037;28;20204;-84
2022/02/21 09:17:13;;;;;;;7.13;1.10;;;;;10.70;99391.00;;;;5043654;28;20305;-82
2022/02/21 09:19:41;;;;;;;5.22;1.20;;;;;10.70;99397.00;;;;5053221;28;20234;-82
2022/02/21 09:22:08;;;;;;;8.75;1.40;;;;;10.70;99405.00;;;;5048880;28;20220;-81
2022/02/21 09:24:35;;;;;;;2.67;0.88;;;;;10.60;99388.00;;;;5043571;28;20210;-84
2022/02/21 09:27:03;;;;;;;7.53;1.70;;;;;10.60;99378.00;;;;5053127;28;20188;-84
2022/02/21 09:29:32;;;;;;;5.65;1.27;;;;;10.50;99365.00;;;;5056260;28;20203;-85
2022/02/21 09:32:00;;;;;;;5.60;1.60;;;;;10.50;99365.00;;;;5046278;28;20282;-83
2022/02/21 09:34:28;;;;;;;5.40;0.90;;;;;10.50;99369.00;;;;5045148;28;20204;-84
2022/02/21 09:36:55;;;;;;;4.10;0.95;;;;;10.50;99374.00;;;;5042387;28;20196;-83
2022/02/21 09:39:25;;;;;;;5.75;1.52;;;;;10.40;99357.00;;;;5038331;28;20224;-86
2022/02/21 09:41:53;;;;;;;3.45;0.73;;;;;10.50;99361.00;;;;5043742;28;20199;-84
2022/02/21 09:44:23;;;;;;;8.35;0.73;;;;;10.40;99357.00;;;;5052715;28;20226;-84
2022/02/21 09:46:50;;;;;;;5.80;0.95;;;;;10.50;99351.00;;;;5054389;28;20192;-84
2022/02/21 09:49:20;;;;;;;7.18;1.67;;;;;10.40;99356.00;;;;5047168;28;20672;-83
2022/02/21 09:51:48;;;;;;;7.95;1.70;;;;;10.40;99345.00;;;;5051215;28;20206;-85
2022/02/21 09:54:18;;;;;;;6.32;0.63;;;;;10.40;99332.00;;;;5042799;28;20199;-86
2022/02/21 09:56:48;;;;;;;8.00;1.00;;;;;10.40;99353.00;;;;5048266;28;20291;-83
2022/02/21 09:59:15;;;;;;;8.80;1.55;;;;;10.30;99345.00;;;;5039031;28;20219;-84
2022/02/21 10:01:45;;;;;;;6.63;1.00;;;;;10.30;99347.00;;;;5043504;28;20196;-85
2022/02/21 10:04:13;;;;;;;7.30;1.05;;;;;10.30;99348.00;;;;5028602;28;20693;-85
2022/02/21 10:06:42;;;;;;;8.00;1.02;;;;;10.20;99352.00;;;;5031084;28;20924;-85
2022/02/21 10:09:12;;;;;;;3.97;0.60;;;;;10.20;99350.00;;;;5039546;28;20638;-83
2022/02/21 10:11:41;;;;;;;6.68;1.42;;;;;10.20;99336.00;;;;5064503;28;20199;-84
2022/02/21 10:14:12;;;;;;;4.93;1.33;;;;;10.20;99332.00;;;;5034307;28;20192;-84
2022/02/21 10:16:42;;;;;;;6.57;1.60;;;;;10.30;99334.00;;;;5040071;28;20203;-84
2022/02/21 10:19:17;;;;;;;7.68;1.10;;;;;10.30;99339.00;;;;5037868;28;20223;-83
2022/02/21 10:21:59;;;;;;;8.13;1.73;;;;;10.30;99322.00;;;;5038940;28;20242;-81
2022/02/21 10:24:27;;;;;;;8.20;1.77;;;;;10.40;99290.00;;;;5035009;28;20183;-82
2022/02/21 10:26:57;;;;;;;6.28;1.70;;;;;10.40;99275.00;;;;5039433;28;20230;-84
2022/02/21 10:29:25;;;;;;;4.72;1.05;;;;;10.40;99289.00;;;;5048294;28;20200;-84
2022/02/21 10:32:06;;;;;;;6.80;1.83;;;;;10.50;99268.00;;;;5046906;28;20207;-83
2022/02/21 10:34:35;;;;;;;9.48;1.73;;;;;10.50;99281.00;;;;5037175;28;20195;-84
2022/02/21 10:37:06;;;;;;;10.27;2.13;;;;;10.50;99289.00;;;;5044007;28;20220;-84
2022/02/21 10:39:33;;;;;;;6.80;1.95;;;;;10.60;99267.00;;;;5030835;28;20222;-81
2022/02/21 10:42:02;;;;;;;10.55;2.05;;;;;10.60;99286.00;;;;5050077;28;20210;-81
2022/02/21 10:44:32;;;;;;;9.05;2.47;;;;;10.70;99289.00;;;;5045727;28;20215;-82
2022/02/21 10:47:05;;;;;;;6.63;1.80;;;;;10.70;99287.00;;;;5037038;28;20193;-81
2022/02/21 10:49:34;;;;;;;8.65;2.10;;;;;10.80;99289.00;;;;5040173;28;20838;-82
2022/02/21 10:52:05;;;;;;;9.27;2.75;;;;;10.80;99298.00;;;;5044211;28;20207;-81
2022/02/21 10:54:35;;;;;;;5.25;1.63;;;;;10.90;99287.00;;;;5035098;28;20195;-82
2022/02/21 10:57:03;;;;;;;11.70;2.47;;;;;11.00;99298.00;;;;5042233;28;21956;-82
2022/02/21 10:59:32;;;;;;;10.48;2.60;;;;;11.00;99294.00;;;;5050549;28;20586;-82
2022/02/21 11:02:02;;;;;;;16.83;2.40;;;;;11.00;99284.00;;;;5043253;28;20195;-81
2022/02/21 11:04:30;;;;;;;12.73;2.65;;;;;11.10;99273.00;;;;5047955;28;20211;-83
2022/02/21 11:06:59;;;;;;;16.40;2.50;;;;;11.10;99277.00;;;;5046741;28;20191;-82
2022/02/21 11:09:29;;;;;;;11.27;2.33;;;;;11.10;99278.00;;;;5043657;28;20203;-83
2022/02/21 11:12:00;;;;;;;8.70;2.17;;;;;11.20;99277.00;;;;5061119;28;20199;-83
2022/02/21 11:14:30;;;;;;;12.55;2.17;;;;;11.20;99290.00;;;;5039189;28;20685;-81
2022/02/21 11:16:59;;;;;;;10.27;2.05;;;;;11.30;99273.00;;;;5041719;28;20730;-80
2022/02/21 11:19:27;;;;;;;10.57;1.83;;;;;11.30;99271.00;;;;5032814;28;20701;-82
2022/02/21 11:21:55;;;;;;;18.33;2.30;;;;;11.40;99267.00;;;;5043547;28;20207;-82
2022/02/21 11:24:24;;;;;;;12.40;1.88;;;;;11.40;99263.00;;;;5038625;28;20192;-83
2022/02/21 11:27:08;;;;;;;11.73;2.22;;;;;11.40;99267.00;;;;5048774;28;20192;-82
2022/02/21 11:29:41;;;;;;;12.75;2.30;;;;;11.40;99281.00;;;;5037290;28;20689;-83
2022/02/21 11:32:17;;;;;;;13.45;2.33;;;;;11.40;99270.00;;;;5051023;28;20196;-83
2022/02/21 11:34:48;;;;;;;9.30;2.05;;;;;11.50;99277.00;;;;5052647;28;20225;-84
2022/02/21 11:37:26;;;;;;;9.35;1.95;;;;;11.50;99265.00;;;;5049703;28;20211;-83
2022/02/21 11:40:02;;;;;;;11.38;2.60;;;;;11.50;99283.00;;;;5046009;28;20556;-83
2022/02/21 11:42:33;;;;;;;9.25;2.08;;;;;11.60;99281.00;;;;5045317;28;20270;-84
2022/02/21 11:45:02;;;;;;;9.80;1.73;;;;;11.70;99279.00;;;;5042302;28;20202;-80
2022/02/21 11:47:38;;;;;;;16.38;2.00;;;;;11.70;99277.00;;;;5051636;28;20608;-84
2022/02/21 11:50:08;;;;;;;13.48;2.22;;;;;11.80;99284.00;;;;5044346;28;20242;-81
2022/02/21 11:52:38;;;;;;;9.20;2.28;;;;;11.90;99285.00;;;;5038337;28;20208;-82
2022/02/21 11:55:39;;;;;;;9.77;2.00;;;;;11.90;99308.00;;;;5047781;28;20193;-81
2022/02/21 11:58:37;;;;;;;8.73;1.58;;;;;11.90;99315.00;;;;5047219;28;20191;-83
2022/02/21 12:01:15;;;;;;;9.15;1.73;;;;;12.00;99305.00;;;;5047432;28;20223;-83
2022/02/21 12:03:43;;;;;;;10.90;2.17;;;;;12.10;99298.00;;;;5049007;28;20222;-82
2022/02/21 12:06:30;;;;;;;9.75;1.98;;;;;12.10;99290.00;;;;5046214;28;20235;-81
2022/02/21 12:09:03;;;;;;;6.03;1.33;;;;;12.20;99295.00;;;;5049005;28;20214;-83
2022/02/21 12:11:31;;;;;;;8.77;1.70;;;;;12.30;99290.00;;;;5048238;28;20204;-83
2022/02/21 12:14:20;;;;;;;6.50;1.90;;;;;12.30;99289.00;;;;5042153;28;20196;-83
2022/02/21 12:17:03;;;;;;;15.65;2.03;;;;;12.40;99286.00;;;;5043987;28;20222;-83
2022/02/21 12:19:31;;;;;;;6.97;1.80;;;;;12.50;99298.00;;;;5035477;28;20701;-83
2022/02/21 12:22:14;;;;;;;11.52;2.28;;;;;12.50;99306.00;;;;5038339;28;20215;-83
2022/02/21 12:25:09;;;;;;;9.80;2.00;;;;;12.50;99310.00;;;;5033884;28;20204;-83